createdAt,value
2022-10-05T00:01:27.341Z,78.58
2022-10-05T00:04:01.091Z,78.42
2022-10-05T00:06:31.174Z,78.52
2022-10-05T00:09:01.737Z,78.28
2022-10-05T00:11:30.199Z,78.70
2022-10-05T00:14:00.676Z,78.44
2022-10-05T00:16:30.457Z,78.45
2022-10-05T00:19:00.604Z,78.18
2022-10-05T00:21:30.291Z,78.25
2022-10-05T00:23:59.698Z,78.17
2022-10-05T00:26:33.159Z,78.18
2022-10-05T00:29:03.644Z,78.22
2022-10-05T00:31:36.407Z,78.17
2022-10-05T00:34:04.799Z,78.33
2022-10-05T00:36:33.532Z,78.70
2022-10-05T00:39:03.334Z,78.68
2022-10-05T00:41:40.696Z,78.84
2022-10-05T00:44:35.719Z,79.25
2022-10-05T00:47:14.527Z,79.12
2022-10-05T00:50:01.893Z,79.41
2022-10-05T00:52:40.179Z,79.11
2022-10-05T00:55:19.399Z,78.77
2022-10-05T00:57:57.732Z,78.78
2022-10-05T01:00:29.016Z,78.65
2022-10-05T01:03:02.760Z,78.76
2022-10-05T01:05:47.074Z,78.57
2022-10-05T01:08:26.457Z,78.67
2022-10-05T01:11:05.014Z,78.46
2022-10-05T01:13:48.394Z,78.71
2022-10-05T01:16:24.243Z,78.10
2022-10-05T01:19:00.190Z,78.16
2022-10-05T01:21:32.603Z,78.26
2022-10-05T01:24:31.847Z,78.35
2022-10-05T01:27:18.744Z,78.49
2022-10-05T01:29:55.687Z,78.60
2022-10-05T01:32:31.301Z,78.12
2022-10-05T01:35:09.322Z,78.25
2022-10-05T01:37:47.486Z,78.28
2022-10-05T01:40:25.774Z,78.32
2022-10-05T01:43:05.515Z,78.19
2022-10-05T01:45:46.261Z,78.49
2022-10-05T01:48:21.640Z,78.06
2022-10-05T01:51:02.013Z,78.69
2022-10-05T01:53:41.466Z,78.63
2022-10-05T01:56:20.361Z,78.52
2022-10-05T01:58:57.728Z,78.32
2022-10-05T02:01:33.339Z,78.22
2022-10-05T02:04:08.410Z,78.19
2022-10-05T02:06:40.320Z,78.02
2022-10-05T02:09:15.467Z,78.33
2022-10-05T02:11:49.304Z,78.21
2022-10-05T02:14:21.784Z,78.45
2022-10-05T02:16:54.136Z,78.10
2022-10-05T02:19:25.485Z,78.28
2022-10-05T02:22:00.398Z,78.31
2022-10-05T02:24:33.449Z,78.40
2022-10-05T02:27:05.032Z,78.14
2022-10-05T02:29:37.540Z,78.32
2022-10-05T02:32:16.301Z,78.24
2022-10-05T02:34:45.242Z,78.38
2022-10-05T02:37:25.423Z,78.23
2022-10-05T02:40:06.713Z,78.33
2022-10-05T02:42:47.357Z,78.39
2022-10-05T02:45:24.836Z,78.44
2022-10-05T02:48:05.139Z,78.59
2022-10-05T02:50:42.739Z,78.13
2022-10-05T02:53:23.263Z,78.23
2022-10-05T02:56:01.068Z,78.22
2022-10-05T02:58:35.125Z,78.27
2022-10-05T03:01:14.052Z,78.11
2022-10-05T03:03:48.692Z,77.92
2022-10-05T03:06:23.458Z,78.00
2022-10-05T03:09:02.508Z,78.05
2022-10-05T03:11:40.013Z,77.81
2022-10-05T03:14:15.390Z,78.12
2022-10-05T03:16:56.139Z,77.75
2022-10-05T03:19:39.557Z,77.86
2022-10-05T03:22:16.831Z,77.89
2022-10-05T03:25:15.864Z,77.97
2022-10-05T03:27:54.799Z,78.05
2022-10-05T03:30:26.606Z,77.98
2022-10-05T03:33:04.231Z,77.87
2022-10-05T03:35:46.472Z,77.69
2022-10-05T03:38:24.545Z,77.86
2022-10-05T03:40:58.360Z,77.88
2022-10-05T03:44:09.703Z,78.15
2022-10-05T03:46:54.712Z,77.64
2022-10-05T03:49:33.299Z,77.68
2022-10-05T03:52:10.188Z,77.84
2022-10-05T03:54:44.026Z,77.72
2022-10-05T03:57:15.921Z,78.21
2022-10-05T03:59:53.202Z,79.54
2022-10-05T04:02:26.223Z,80.03
2022-10-05T04:05:00.318Z,79.37
2022-10-05T04:07:42.678Z,79.66
2022-10-05T04:10:18.273Z,79.30
2022-10-05T04:12:52.072Z,78.81
2022-10-05T04:15:32.966Z,79.38
2022-10-05T04:18:06.394Z,79.00
2022-10-05T04:20:41.038Z,78.95
2022-10-05T04:23:19.749Z,78.67
2022-10-05T04:25:52.860Z,78.07
2022-10-05T04:28:31.799Z,78.00
2022-10-05T04:31:03.872Z,77.38
2022-10-05T04:33:33.215Z,77.40
2022-10-05T04:36:22.928Z,77.61
2022-10-05T04:39:03.659Z,77.56
2022-10-05T04:41:46.573Z,77.15
2022-10-05T04:44:28.844Z,77.05
2022-10-05T04:47:19.945Z,77.34
2022-10-05T04:50:08.716Z,77.88
2022-10-05T04:52:49.093Z,77.49
2022-10-05T04:55:29.378Z,77.31
2022-10-05T04:58:06.826Z,77.33
2022-10-05T05:00:45.482Z,77.35
2022-10-05T05:03:50.507Z,77.82
2022-10-05T05:06:30.766Z,77.67
2022-10-05T05:09:15.118Z,77.75
2022-10-05T05:11:56.075Z,77.80
2022-10-05T05:14:42.831Z,77.77
2022-10-05T05:17:24.736Z,77.31
2022-10-05T05:20:01.703Z,77.33
2022-10-05T05:22:36.753Z,77.89
2022-10-05T05:25:21.282Z,77.26
2022-10-05T05:27:54.924Z,77.53
2022-10-05T05:30:25.627Z,77.41
2022-10-05T05:33:15.427Z,77.68
2022-10-05T05:36:04.247Z,77.21
2022-10-05T05:38:36.373Z,77.24
2022-10-05T05:41:12.912Z,77.47
2022-10-05T05:43:54.227Z,77.31
2022-10-05T05:46:51.200Z,76.98
2022-10-05T05:49:22.690Z,77.00
2022-10-05T05:51:59.279Z,76.93
2022-10-05T05:54:38.250Z,77.21
2022-10-05T05:57:13.674Z,76.76
2022-10-05T05:59:55.659Z,76.81
2022-10-05T06:02:29.607Z,76.84
2022-10-05T06:05:04.001Z,76.80
2022-10-05T06:07:32.822Z,76.40
2022-10-05T06:10:07.356Z,76.63
2022-10-05T06:12:39.457Z,76.48
2022-10-05T06:15:29.295Z,76.67
2022-10-05T06:18:00.643Z,76.24
2022-10-05T06:20:34.126Z,76.24
2022-10-05T06:23:07.231Z,76.13
2022-10-05T06:25:45.814Z,76.17
2022-10-05T06:28:16.168Z,76.08
2022-10-05T06:31:02.641Z,75.97
2022-10-05T06:33:44.078Z,75.79
2022-10-05T06:36:38.976Z,75.81
2022-10-05T06:39:45.665Z,75.63
2022-10-05T06:42:31.432Z,75.73
2022-10-05T06:45:08.924Z,75.48
2022-10-05T06:47:50.819Z,75.41
2022-10-05T06:50:33.407Z,75.57
2022-10-05T06:53:17.162Z,75.44
2022-10-05T06:55:53.237Z,75.29
2022-10-05T06:58:36.392Z,75.44
2022-10-05T07:01:12.071Z,75.32
2022-10-05T07:04:00.392Z,75.14
2022-10-05T07:06:35.355Z,74.99
2022-10-05T07:09:25.362Z,74.70
2022-10-05T07:12:17.059Z,74.57
2022-10-05T07:15:07.700Z,74.53
2022-10-05T07:17:47.125Z,74.42
2022-10-05T07:20:25.311Z,74.39
2022-10-05T07:23:15.379Z,74.23
2022-10-05T07:25:51.180Z,74.26
2022-10-05T07:28:29.226Z,74.12
2022-10-05T07:31:06.667Z,73.91
2022-10-05T07:33:44.406Z,74.06
2022-10-05T07:36:38.686Z,73.81
2022-10-05T07:39:15.178Z,73.87
2022-10-05T07:41:47.761Z,73.74
2022-10-05T07:44:23.745Z,73.39
2022-10-05T07:47:02.235Z,73.34
2022-10-05T07:49:40.541Z,73.04
2022-10-05T07:52:16.413Z,72.94
2022-10-05T07:54:50.448Z,72.97
2022-10-05T07:57:27.315Z,72.74
2022-10-05T08:00:04.239Z,72.51
2022-10-05T08:02:39.016Z,72.40
2022-10-05T08:05:15.166Z,72.24
2022-10-05T08:07:55.542Z,72.19
2022-10-05T08:10:33.977Z,72.21
2022-10-05T08:13:11.426Z,72.04
2022-10-05T08:15:43.005Z,72.25
2022-10-05T08:18:18.921Z,71.94
2022-10-05T08:20:52.237Z,71.67
2022-10-05T08:23:31.756Z,71.73
2022-10-05T08:26:21.786Z,71.54
2022-10-05T08:28:59.635Z,71.69
2022-10-05T08:31:35.627Z,71.01
2022-10-05T08:34:22.173Z,70.86
2022-10-05T08:37:01.729Z,71.05
2022-10-05T08:39:37.569Z,70.88
2022-10-05T08:42:39.989Z,70.60
2022-10-05T08:45:48.164Z,70.17
2022-10-05T08:48:32.889Z,70.55
2022-10-05T08:51:23.301Z,70.50
2022-10-05T08:54:20.360Z,69.63
2022-10-05T08:57:06.847Z,70.29
2022-10-05T09:00:10.253Z,69.55
2022-10-05T09:02:58.899Z,69.86
2022-10-05T09:06:10.267Z,69.10
2022-10-05T09:09:14.195Z,68.59
2022-10-05T09:11:54.330Z,68.76
2022-10-05T09:14:34.553Z,68.35
2022-10-05T09:17:22.836Z,67.91
2022-10-05T09:20:10.179Z,67.96
2022-10-05T09:22:59.759Z,67.45
2022-10-05T09:25:44.846Z,67.72
2022-10-05T09:28:29.242Z,67.52
2022-10-05T09:31:15.421Z,67.83
2022-10-05T09:34:12.529Z,67.23
2022-10-05T09:37:20.142Z,67.11
2022-10-05T09:40:21.458Z,66.99
2022-10-05T09:43:34.211Z,66.62
2022-10-05T09:46:40.729Z,66.51
2022-10-05T09:49:34.574Z,66.73
2022-10-05T09:52:16.474Z,66.78
2022-10-05T09:55:22.310Z,65.95
2022-10-05T09:58:16.438Z,65.91
2022-10-05T10:01:09.248Z,66.03
2022-10-05T10:04:26.581Z,65.39
2022-10-05T10:07:35.433Z,65.26
2022-10-05T10:10:45.170Z,65.09
2022-10-05T10:14:00.336Z,65.05
2022-10-05T10:16:53.634Z,65.40
2022-10-05T10:20:04.625Z,64.70
2022-10-05T10:23:03.826Z,64.91
2022-10-05T10:25:53.298Z,64.74
2022-10-05T10:28:43.096Z,64.41
2022-10-05T10:31:43.448Z,64.20
2022-10-05T10:34:37.602Z,64.21
2022-10-05T10:37:31.802Z,64.22
2022-10-05T10:40:23.369Z,64.10
2022-10-05T10:43:13.961Z,63.58
2022-10-05T10:45:54.268Z,63.47
2022-10-05T10:48:55.135Z,62.78
2022-10-05T10:51:45.598Z,63.08
2022-10-05T10:55:00.011Z,62.81
2022-10-05T10:57:41.063Z,63.07
2022-10-05T11:00:29.163Z,62.23
2022-10-05T11:03:34.303Z,62.11
2022-10-05T11:06:19.061Z,62.14
2022-10-05T11:09:22.670Z,62.03
2022-10-05T11:12:25.878Z,61.67
2022-10-05T11:15:39.333Z,61.80
2022-10-05T11:18:16.673Z,61.63
2022-10-05T11:21:13.004Z,60.17
2022-10-05T11:24:08.789Z,60.19
2022-10-05T11:26:53.613Z,60.23
2022-10-05T11:29:47.335Z,59.65
2022-10-05T11:32:35.039Z,59.68
2022-10-05T11:35:20.545Z,58.93
2022-10-05T11:38:16.315Z,58.13
2022-10-05T11:41:18.689Z,57.94
2022-10-05T11:44:09.900Z,57.67
2022-10-05T11:46:47.056Z,57.71
2022-10-05T11:49:27.090Z,57.35
2022-10-05T11:52:09.901Z,56.86
2022-10-05T11:55:11.362Z,56.28
2022-10-05T11:57:49.656Z,56.60
2022-10-05T12:00:20.862Z,56.43
2022-10-05T12:03:03.137Z,55.98
2022-10-05T12:05:39.612Z,56.28
2022-10-05T12:08:21.416Z,56.39
2022-10-05T12:10:59.723Z,56.28
2022-10-05T12:13:38.828Z,56.18
2022-10-05T12:16:13.133Z,56.23
2022-10-05T12:18:57.532Z,55.85
2022-10-05T12:21:34.329Z,56.26
2022-10-05T12:24:14.601Z,56.40
2022-10-05T12:26:48.508Z,56.37
2022-10-05T12:29:24.648Z,56.64
2022-10-05T12:31:59.969Z,56.39
2022-10-05T12:34:44.846Z,56.00
2022-10-05T12:37:34.886Z,55.51
2022-10-05T12:40:07.987Z,55.85
2022-10-05T12:42:42.074Z,55.69
2022-10-05T12:45:21.679Z,55.37
2022-10-05T12:48:08.723Z,55.09
2022-10-05T12:50:43.288Z,55.23
2022-10-05T12:53:29.827Z,54.29
2022-10-05T12:56:05.475Z,54.22
2022-10-05T12:58:42.843Z,54.16
2022-10-05T13:01:27.215Z,53.81
2022-10-05T13:04:11.463Z,53.88
2022-10-05T13:06:50.093Z,54.02
2022-10-05T13:09:25.211Z,53.63
2022-10-05T13:11:58.712Z,53.27
2022-10-05T13:14:47.376Z,53.02
2022-10-05T13:17:24.958Z,53.04
2022-10-05T13:20:05.123Z,52.79
2022-10-05T13:22:37.690Z,53.06
2022-10-05T13:25:21.734Z,52.74
2022-10-05T13:28:14.802Z,52.79
2022-10-05T13:30:52.638Z,52.81
2022-10-05T13:33:27.804Z,52.80
2022-10-05T13:36:07.882Z,52.84
2022-10-05T13:38:51.973Z,52.81
2022-10-05T13:41:32.254Z,52.89
2022-10-05T13:44:17.656Z,52.82
2022-10-05T13:46:50.373Z,52.89
2022-10-05T13:49:26.549Z,52.48
2022-10-05T13:52:01.662Z,52.25
2022-10-05T13:54:41.755Z,51.86
2022-10-05T13:57:22.217Z,52.02
2022-10-05T13:59:54.994Z,52.01
2022-10-05T14:02:29.933Z,51.92
2022-10-05T14:05:04.597Z,51.54
2022-10-05T14:07:35.117Z,51.69
2022-10-05T14:10:11.283Z,51.81
2022-10-05T14:12:45.728Z,52.08
2022-10-05T14:15:22.195Z,52.07
2022-10-05T14:17:52.770Z,52.31
2022-10-05T14:20:25.017Z,52.35
2022-10-05T14:23:00.694Z,52.61
2022-10-05T14:25:31.619Z,52.70
2022-10-05T14:28:04.076Z,53.04
2022-10-05T14:30:33.681Z,52.95
2022-10-05T14:33:16.263Z,52.58
2022-10-05T14:35:49.205Z,52.87
2022-10-05T14:38:21.295Z,52.82
2022-10-05T14:41:17.323Z,52.52
2022-10-05T14:43:55.857Z,53.07
2022-10-05T14:46:29.045Z,53.35
2022-10-05T14:49:24.208Z,53.27
2022-10-05T14:51:54.388Z,53.51
2022-10-05T14:54:36.788Z,53.58
2022-10-05T14:57:15.572Z,53.63
2022-10-05T15:00:05.439Z,53.65
2022-10-05T15:02:58.147Z,53.59
2022-10-05T15:05:32.500Z,53.80
2022-10-05T15:08:15.816Z,53.77
2022-10-05T15:10:50.886Z,53.98
2022-10-05T15:13:23.328Z,53.86
2022-10-05T15:15:55.213Z,53.89
2022-10-05T15:18:32.354Z,53.78
2022-10-05T15:21:16.706Z,53.73
2022-10-05T15:23:52.897Z,53.87
2022-10-05T15:26:36.475Z,54.06
2022-10-05T15:29:19.619Z,54.18
2022-10-05T15:31:58.077Z,54.05
2022-10-05T15:34:36.566Z,54.01
2022-10-05T15:37:15.082Z,54.06
2022-10-05T15:39:50.439Z,54.18
2022-10-05T15:42:23.775Z,54.41
2022-10-05T15:45:05.494Z,54.50
2022-10-05T15:47:47.091Z,54.81
2022-10-05T15:50:23.899Z,55.12
2022-10-05T15:52:57.201Z,55.72
2022-10-05T15:55:38.210Z,56.10
2022-10-05T15:58:39.117Z,56.27
2022-10-05T16:01:14.158Z,56.44
2022-10-05T16:03:50.171Z,56.89
2022-10-05T16:06:47.173Z,57.29
2022-10-05T16:09:29.679Z,57.50
2022-10-05T16:12:06.167Z,57.50
2022-10-05T16:14:48.779Z,57.60
2022-10-05T16:17:29.817Z,57.83
2022-10-05T16:20:14.621Z,57.65
2022-10-05T16:22:51.015Z,57.74
2022-10-05T16:25:23.523Z,57.90
2022-10-05T16:28:07.205Z,58.01
2022-10-05T16:30:47.613Z,58.00
2022-10-05T16:33:26.952Z,57.92
2022-10-05T16:36:04.920Z,58.09
2022-10-05T16:38:44.314Z,58.07
2022-10-05T16:41:28.354Z,58.25
2022-10-05T16:44:05.127Z,58.91
2022-10-05T16:46:40.932Z,59.30
2022-10-05T16:49:23.969Z,59.71
2022-10-05T16:51:59.123Z,60.00
2022-10-05T16:54:32.732Z,60.40
2022-10-05T16:57:06.557Z,60.77
2022-10-05T17:00:18.568Z,61.71
2022-10-05T17:03:04.163Z,61.65
2022-10-05T17:05:55.813Z,62.25
2022-10-05T17:09:11.184Z,62.60
2022-10-05T17:11:56.175Z,62.51
2022-10-05T17:14:38.996Z,62.64
2022-10-05T17:17:30.707Z,63.16
2022-10-05T17:20:17.425Z,62.84
2022-10-05T17:22:52.959Z,62.94
2022-10-05T17:25:29.728Z,62.85
2022-10-05T17:28:17.860Z,63.06
2022-10-05T17:30:58.927Z,62.65
2022-10-05T17:33:29.100Z,62.52
2022-10-05T17:36:17.224Z,62.73
2022-10-05T17:39:13.074Z,62.82
2022-10-05T17:41:44.985Z,62.72
2022-10-05T17:44:34.149Z,63.00
2022-10-05T17:47:04.108Z,62.89
2022-10-05T17:50:11.310Z,63.67
2022-10-05T17:53:01.854Z,63.28
2022-10-05T17:56:02.429Z,63.92
2022-10-05T17:59:07.899Z,64.30
2022-10-05T18:01:38.117Z,64.04
2022-10-05T18:04:41.018Z,64.75
2022-10-05T18:07:24.294Z,64.78
2022-10-05T18:10:02.181Z,64.71
2022-10-05T18:13:10.855Z,65.27
2022-10-05T18:15:50.327Z,64.76
2022-10-05T18:18:57.401Z,65.16
2022-10-05T18:21:59.908Z,65.25
2022-10-05T18:24:41.955Z,64.74
2022-10-05T18:27:46.881Z,64.87
2022-10-05T18:30:21.555Z,64.58
2022-10-05T18:33:11.728Z,64.81
2022-10-05T18:35:51.859Z,64.70
2022-10-05T18:38:39.414Z,64.93
2022-10-05T18:41:17.316Z,64.63
2022-10-05T18:43:53.857Z,64.77
2022-10-05T18:46:38.019Z,65.02
2022-10-05T18:49:22.006Z,64.89
2022-10-05T18:51:56.483Z,65.00
2022-10-05T18:54:43.127Z,65.32
2022-10-05T18:57:34.316Z,65.38
2022-10-05T19:00:07.978Z,65.17
2022-10-05T19:02:43.014Z,65.12
2022-10-05T19:05:46.822Z,65.08
2022-10-05T19:08:21.754Z,64.93
2022-10-05T19:10:55.637Z,64.98
2022-10-05T19:13:39.757Z,65.03
2022-10-05T19:16:22.462Z,65.12
2022-10-05T19:19:12.326Z,65.08
2022-10-05T19:21:47.904Z,65.18
2022-10-05T19:24:29.714Z,65.21
2022-10-05T19:27:07.768Z,65.44
2022-10-05T19:29:52.780Z,65.42
2022-10-05T19:32:31.083Z,65.36
2022-10-05T19:35:18.999Z,65.25
2022-10-05T19:37:56.615Z,65.19
2022-10-05T19:40:31.605Z,65.10
2022-10-05T19:43:14.285Z,65.15
2022-10-05T19:45:48.538Z,65.01
2022-10-05T19:48:29.328Z,64.90
2022-10-05T19:51:04.094Z,65.02
2022-10-05T19:53:38.226Z,65.08
2022-10-05T19:56:20.406Z,65.22
2022-10-05T19:58:52.093Z,65.18
2022-10-05T20:01:25.575Z,65.33
2022-10-05T20:03:55.455Z,65.22
2022-10-05T20:06:26.929Z,65.34
2022-10-05T20:08:59.874Z,65.37
2022-10-05T20:11:29.395Z,65.26
2022-10-05T20:14:19.968Z,65.42
2022-10-05T20:17:05.955Z,65.21
2022-10-05T20:19:56.908Z,65.27
2022-10-05T20:22:35.240Z,65.35
2022-10-05T20:25:06.785Z,65.09
2022-10-05T20:27:46.619Z,65.12
2022-10-05T20:30:16.963Z,65.50
2022-10-05T20:32:49.153Z,65.29
2022-10-05T20:35:18.603Z,65.38
2022-10-05T20:37:49.955Z,65.59
2022-10-05T20:40:19.715Z,65.61
2022-10-05T20:42:48.359Z,65.67
2022-10-05T20:45:17.304Z,65.64
2022-10-05T20:47:46.626Z,65.71
2022-10-05T20:50:15.862Z,65.92
2022-10-05T20:52:44.868Z,66.11
2022-10-05T20:55:14.645Z,66.33
2022-10-05T20:57:43.189Z,66.17
2022-10-05T21:00:13.212Z,66.02
2022-10-05T21:02:41.833Z,65.83
2022-10-05T21:05:10.845Z,65.76
2022-10-05T21:07:39.598Z,66.05
2022-10-05T21:10:08.643Z,66.22
2022-10-05T21:12:38.736Z,66.46
2022-10-05T21:15:07.952Z,66.70
2022-10-05T21:17:39.223Z,66.97
2022-10-05T21:20:11.165Z,67.14
2022-10-05T21:22:39.556Z,67.23
2022-10-05T21:25:08.985Z,67.22
2022-10-05T21:27:39.136Z,67.24
2022-10-05T21:30:09.137Z,67.35
2022-10-05T21:32:41.804Z,67.09
2022-10-05T21:35:12.611Z,67.11
2022-10-05T21:37:41.004Z,67.23
2022-10-05T21:40:10.426Z,66.86
2022-10-05T21:42:40.151Z,67.36
2022-10-05T21:45:09.707Z,67.06
2022-10-05T21:47:38.496Z,66.89
2022-10-05T21:50:08.653Z,66.92
2022-10-05T21:52:37.215Z,67.02
2022-10-05T21:55:06.919Z,67.01
2022-10-05T21:57:36.553Z,66.90
2022-10-05T22:00:09.452Z,66.85
2022-10-05T22:02:38.314Z,66.83
2022-10-05T22:05:06.916Z,66.83
2022-10-05T22:07:35.466Z,66.64
2022-10-05T22:10:05.843Z,66.53
2022-10-05T22:12:34.690Z,67.05
2022-10-05T22:15:04.837Z,66.90
2022-10-05T22:17:37.952Z,66.81
2022-10-05T22:20:07.210Z,66.62
2022-10-05T22:22:35.543Z,66.67
2022-10-05T22:25:04.429Z,66.80
2022-10-05T22:27:35.297Z,66.83
2022-10-05T22:30:05.699Z,66.95
2022-10-05T22:32:35.836Z,66.90
2022-10-05T22:35:09.123Z,67.00
2022-10-05T22:37:39.706Z,66.98
2022-10-05T22:40:11.182Z,66.90
2022-10-05T22:42:40.584Z,67.24
2022-10-05T22:45:10.074Z,66.99
2022-10-05T22:47:42.633Z,67.30
2022-10-05T22:50:11.187Z,67.19
2022-10-05T22:52:39.541Z,67.23
2022-10-05T22:55:08.706Z,67.40
2022-10-05T22:57:39.901Z,67.25
2022-10-05T23:00:11.477Z,67.31
2022-10-05T23:02:42.833Z,67.41
2022-10-05T23:05:13.265Z,67.53
2022-10-05T23:07:44.129Z,67.57
2022-10-05T23:10:15.724Z,67.34
2022-10-05T23:12:44.783Z,67.49
2022-10-05T23:15:13.328Z,67.35
2022-10-05T23:17:43.074Z,67.41
2022-10-05T23:20:11.376Z,67.60
2022-10-05T23:22:40.406Z,67.67
2022-10-05T23:25:09.527Z,67.33
2022-10-05T23:27:39.155Z,67.22
2022-10-05T23:30:09.941Z,67.58
2022-10-05T23:32:39.831Z,67.54
2022-10-05T23:35:12.330Z,67.22
2022-10-05T23:37:41.674Z,67.34
2022-10-05T23:40:13.312Z,67.42
2022-10-05T23:42:42.447Z,67.54
2022-10-05T23:45:12.662Z,67.50
2022-10-05T23:47:41.823Z,67.38
2022-10-05T23:50:11.605Z,67.20
2022-10-05T23:52:44.404Z,67.35
2022-10-05T23:55:12.694Z,67.37
2022-10-05T23:57:41.064Z,67.86
